Time;durP1;ratioP1;P1;durP2;ratioP2;P2;SDS_P1;SDS_P2;PMS_P1;PMS_P2;Temp;Humidity;BMP_temperature;BMP_pressure;BME280_temperature;BME280_humidity;BME280_pressure;Samples;Min_cycle;Max_cycle;Signal;HPM_P1;HPM_P2
2022/07/31 00:01:50;;;;;;;6.45;2.88;;;18.90;99.90;;;;;;5071848;28;20040;-61
2022/07/31 00:04:16;;;;;;;6.97;3.17;;;18.80;99.90;;;;;;5069949;28;20060;-61
2022/07/31 00:06:43;;;;;;;7.75;3.40;;;18.80;99.90;;;;;;5071700;28;20150;-61
2022/07/31 00:09:09;;;;;;;7.80;3.45;;;18.80;99.90;;;;;;5070742;28;20033;-61
2022/07/31 00:11:35;;;;;;;7.05;3.05;;;18.90;99.90;;;;;;5071831;28;20040;-61
2022/07/31 00:14:01;;;;;;;6.95;3.15;;;18.80;99.90;;;;;;5071700;28;20040;-60
2022/07/31 00:16:26;;;;;;;6.40;3.30;;;18.90;99.90;;;;;;5071646;28;20112;-61
2022/07/31 00:18:52;;;;;;;7.28;3.00;;;18.80;99.90;;;;;;5071623;28;20040;-61
2022/07/31 00:21:18;;;;;;;10.77;3.97;;;18.80;99.90;;;;;;5053662;28;20048;-62
2022/07/31 00:23:43;;;;;;;7.35;3.45;;;18.80;99.90;;;;;;5051600;28;20033;-61
2022/07/31 00:26:09;;;;;;;7.15;3.55;;;18.80;99.90;;;;;;5051748;28;20041;-61
2022/07/31 00:28:35;;;;;;;8.18;3.60;;;18.80;99.90;;;;;;5051675;28;20378;-61
2022/07/31 00:31:02;;;;;;;9.02;3.38;;;18.80;99.90;;;;;;5069684;28;20529;-61
2022/07/31 00:33:28;;;;;;;5.82;2.92;;;18.80;99.90;;;;;;5054967;28;20037;-60
2022/07/31 00:35:54;;;;;;;9.85;3.13;;;18.80;99.90;;;;;;5054951;28;20049;-61
2022/07/31 00:38:19;;;;;;;9.10;3.45;;;18.80;99.90;;;;;;5064840;28;20040;-61
2022/07/31 00:40:47;;;;;;;5.97;3.03;;;18.80;99.90;;;;;;5074997;28;20048;-61
2022/07/31 00:43:14;;;;;;;7.72;3.40;;;18.80;99.90;;;;;;5075080;28;20032;-61
2022/07/31 00:45:40;;;;;;;9.90;3.65;;;18.70;99.90;;;;;;5074917;28;20049;-61
2022/07/31 00:48:06;;;;;;;8.25;3.65;;;18.80;99.90;;;;;;5074735;28;20032;-61
2022/07/31 00:50:31;;;;;;;9.23;3.70;;;18.80;99.90;;;;;;5074606;28;20037;-60
2022/07/31 00:52:57;;;;;;;8.15;3.78;;;18.70;99.90;;;;;;5074834;28;20040;-61
2022/07/31 00:55:24;;;;;;;6.45;3.15;;;18.70;99.90;;;;;;5074965;28;20157;-62
2022/07/31 00:57:50;;;;;;;8.02;4.00;;;18.70;99.90;;;;;;5074678;28;20048;-60
2022/07/31 01:00:15;;;;;;;9.20;3.42;;;18.70;99.90;;;;;;5074507;28;20048;-61
2022/07/31 01:02:41;;;;;;;6.95;3.63;;;18.70;99.90;;;;;;5074537;28;20388;-61
2022/07/31 01:05:07;;;;;;;7.80;4.13;;;18.70;99.90;;;;;;5074397;28;20112;-61
2022/07/31 01:07:33;;;;;;;7.45;3.47;;;18.70;99.90;;;;;;5074447;28;20054;-61
2022/07/31 01:10:04;;;;;;;9.63;3.80;;;18.70;99.90;;;;;;5074896;28;20548;-61
2022/07/31 01:12:43;;;;;;;7.43;3.67;;;18.70;99.90;;;;;;5074315;28;20040;-61
2022/07/31 01:15:10;;;;;;;7.85;3.60;;;18.60;99.90;;;;;;5074241;28;20166;-60
2022/07/31 01:17:38;;;;;;;7.38;3.80;;;18.60;99.90;;;;;;5074236;28;20037;-61
2022/07/31 01:20:05;;;;;;;8.80;4.03;;;18.60;99.90;;;;;;5066572;28;20393;-60
2022/07/31 01:22:52;;;;;;;8.55;3.60;;;18.50;99.90;;;;;;5086594;28;20048;-60
2022/07/31 01:25:39;;;;;;;6.45;3.55;;;18.60;99.90;;;;;;5052799;28;20060;-61
2022/07/31 01:28:33;;;;;;;8.25;3.83;;;18.60;99.90;;;;;;5053932;28;20679;-61
2022/07/31 01:31:10;;;;;;;7.97;3.60;;;18.60;99.90;;;;;;5069334;28;20093;-61
2022/07/31 01:33:47;;;;;;;6.95;4.13;;;18.60;99.90;;;;;;5053879;28;20033;-61
2022/07/31 01:36:18;;;;;;;9.73;4.60;;;18.50;99.90;;;;;;5053788;28;20048;-61
2022/07/31 01:38:48;;;;;;;8.50;4.05;;;18.50;99.90;;;;;;5067038;28;20167;-61
2022/07/31 01:41:16;;;;;;;9.77;4.00;;;18.50;99.90;;;;;;5072689;28;20045;-61
2022/07/31 01:43:47;;;;;;;7.30;4.38;;;18.50;99.90;;;;;;5073692;28;20553;-61
2022/07/31 01:46:15;;;;;;;7.70;3.60;;;18.50;99.90;;;;;;5055825;28;20045;-61
2022/07/31 01:48:43;;;;;;;9.05;5.05;;;18.50;99.90;;;;;;5072368;28;20044;-61
2022/07/31 01:51:10;;;;;;;10.75;3.90;;;18.50;99.90;;;;;;5073834;28;20375;-61
2022/07/31 01:53:38;;;;;;;7.63;4.10;;;18.50;99.90;;;;;;5073451;28;20048;-61
2022/07/31 01:56:05;;;;;;;9.13;4.13;;;18.40;99.90;;;;;;5073626;28;20044;-61
2022/07/31 01:58:35;;;;;;;9.25;3.90;;;18.40;99.90;;;;;;5073413;28;20098;-61
2022/07/31 02:01:03;;;;;;;7.50;3.67;;;18.40;99.90;;;;;;5073257;28;20047;-61
2022/07/31 02:03:30;;;;;;;8.65;3.95;;;18.40;99.90;;;;;;5073307;28;20167;-61
2022/07/31 02:05:56;;;;;;;8.90;4.93;;;18.40;99.90;;;;;;5073514;28;20041;-61
2022/07/31 02:08:23;;;;;;;8.07;4.40;;;18.30;99.90;;;;;;5073398;28;20091;-61
2022/07/31 02:10:51;;;;;;;8.98;4.28;;;18.30;99.90;;;;;;5073289;28;20044;-60
2022/07/31 02:13:18;;;;;;;7.05;3.95;;;18.30;99.90;;;;;;5071900;28;20534;-61
2022/07/31 02:15:45;;;;;;;9.20;4.05;;;18.40;99.90;;;;;;5073002;28;20048;-61
2022/07/31 02:18:11;;;;;;;8.70;4.10;;;18.30;99.90;;;;;;5073272;28;20040;-61
2022/07/31 02:20:42;;;;;;;8.93;4.05;;;18.30;99.90;;;;;;5060684;28;20049;-61
2022/07/31 02:23:07;;;;;;;7.45;4.40;;;18.30;99.90;;;;;;5051898;28;20044;-61
2022/07/31 02:25:35;;;;;;;9.32;3.90;;;18.30;99.90;;;;;;5052839;28;20029;-61
2022/07/31 02:28:07;;;;;;;7.53;3.88;;;18.30;99.90;;;;;;5052933;28;20040;-60
2022/07/31 02:30:34;;;;;;;6.47;3.90;;;18.40;99.90;;;;;;5051698;28;20068;-61
2022/07/31 02:33:01;;;;;;;8.63;4.47;;;18.40;99.90;;;;;;5052877;28;20045;-61
2022/07/31 02:35:28;;;;;;;8.05;3.70;;;18.40;99.90;;;;;;5052679;28;20053;-61
2022/07/31 02:37:55;;;;;;;9.82;4.20;;;18.40;99.90;;;;;;5059001;28;20043;-61
2022/07/31 02:40:24;;;;;;;8.13;3.80;;;18.30;99.90;;;;;;5072539;28;20102;-61
2022/07/31 02:42:51;;;;;;;7.47;3.58;;;18.30;99.90;;;;;;5072597;28;20047;-61
2022/07/31 02:45:17;;;;;;;6.88;3.90;;;18.40;99.90;;;;;;5072469;28;20076;-61
2022/07/31 02:47:43;;;;;;;8.02;3.83;;;18.40;99.90;;;;;;5072493;28;20040;-61
2022/07/31 02:50:10;;;;;;;7.68;3.70;;;18.40;99.90;;;;;;5071272;28;20101;-61
2022/07/31 02:52:37;;;;;;;6.88;3.85;;;18.30;99.90;;;;;;5072247;28;20113;-61
2022/07/31 02:55:04;;;;;;;7.15;3.90;;;18.40;99.90;;;;;;5071201;28;20470;-61
2022/07/31 02:57:30;;;;;;;10.40;3.65;;;18.30;99.90;;;;;;5072256;28;20040;-60
2022/07/31 02:59:55;;;;;;;6.40;3.42;;;18.40;99.90;;;;;;5072495;28;20399;-60
2022/07/31 03:02:21;;;;;;;7.63;3.90;;;18.40;99.90;;;;;;5072546;28;20537;-61
2022/07/31 03:04:47;;;;;;;6.97;3.78;;;18.40;99.90;;;;;;5071003;28;20048;-61
2022/07/31 03:07:13;;;;;;;9.73;3.85;;;18.40;99.90;;;;;;5072375;28;20039;-62
2022/07/31 03:09:38;;;;;;;6.93;3.85;;;18.40;99.90;;;;;;5072292;28;20115;-61
2022/07/31 03:12:05;;;;;;;9.80;4.40;;;18.30;99.90;;;;;;5072189;28;20115;-61
2022/07/31 03:14:32;;;;;;;7.65;3.80;;;18.30;99.90;;;;;;5070875;28;20549;-61
2022/07/31 03:16:59;;;;;;;7.38;4.00;;;18.30;99.90;;;;;;5072410;28;20051;-61
2022/07/31 03:19:26;;;;;;;7.28;3.78;;;18.30;99.90;;;;;;5069943;28;20142;-61
2022/07/31 03:21:52;;;;;;;7.53;3.80;;;18.20;99.90;;;;;;5067656;28;20112;-61
2022/07/31 03:24:18;;;;;;;8.52;3.50;;;18.20;99.90;;;;;;5052282;28;20117;-61
2022/07/31 03:26:43;;;;;;;8.27;3.47;;;18.20;99.90;;;;;;5052060;28;20064;-61
2022/07/31 03:29:09;;;;;;;8.27;3.67;;;18.20;99.90;;;;;;5052018;28;20075;-61
2022/07/31 03:31:35;;;;;;;7.28;3.65;;;18.10;99.90;;;;;;5051997;28;20131;-60
2022/07/31 03:34:01;;;;;;;8.23;4.10;;;18.10;99.90;;;;;;5051880;28;20049;-61
2022/07/31 03:36:26;;;;;;;7.75;3.78;;;18.20;99.90;;;;;;5052064;28;20049;-61
2022/07/31 03:38:53;;;;;;;9.38;3.47;;;18.20;99.90;;;;;;5066227;28;20516;-61
2022/07/31 03:41:19;;;;;;;8.35;3.30;;;18.10;99.90;;;;;;5071811;28;20049;-61
2022/07/31 03:43:46;;;;;;;7.45;3.60;;;18.00;99.90;;;;;;5072120;28;20401;-61
2022/07/31 03:46:14;;;;;;;7.68;3.90;;;18.10;99.90;;;;;;5071903;28;20499;-61
2022/07/31 03:48:40;;;;;;;8.73;4.50;;;17.90;99.90;;;;;;5072110;28;20036;-61
2022/07/31 03:51:06;;;;;;;7.80;4.07;;;17.90;99.90;;;;;;5071959;28;20127;-61
2022/07/31 03:53:32;;;;;;;6.40;3.67;;;17.80;99.90;;;;;;5070778;28;20048;-61
2022/07/31 03:55:59;;;;;;;7.03;3.70;;;17.80;99.90;;;;;;5072017;28;20044;-61
2022/07/31 03:58:24;;;;;;;9.43;4.20;;;17.80;99.90;;;;;;5072455;28;20048;-61
2022/07/31 04:00:51;;;;;;;8.32;4.43;;;17.80;99.90;;;;;;5070365;28;20067;-61
2022/07/31 04:03:16;;;;;;;8.57;3.63;;;17.80;99.90;;;;;;5071689;28;20464;-61
2022/07/31 04:05:42;;;;;;;7.72;3.85;;;17.80;99.90;;;;;;5074153;28;20071;-60
2022/07/31 04:08:09;;;;;;;6.10;3.97;;;17.80;99.90;;;;;;5075514;28;20048;-61
2022/07/31 04:10:35;;;;;;;8.27;4.13;;;17.80;99.90;;;;;;5075202;28;20480;-61
2022/07/31 04:13:04;;;;;;;6.30;3.67;;;17.80;99.90;;;;;;5075584;28;20102;-61
2022/07/31 04:15:31;;;;;;;8.48;4.50;;;17.90;99.90;;;;;;5075479;28;20115;-61
2022/07/31 04:17:57;;;;;;;7.28;4.43;;;17.90;99.90;;;;;;5075191;28;20481;-61
2022/07/31 04:20:23;;;;;;;9.32;4.00;;;17.80;99.90;;;;;;5064888;28;20048;-61
2022/07/31 04:22:49;;;;;;;8.13;4.28;;;17.90;99.90;;;;;;5055355;28;20397;-61
2022/07/31 04:25:15;;;;;;;7.78;5.03;;;17.90;99.90;;;;;;5055396;28;20037;-61
2022/07/31 04:27:41;;;;;;;8.57;4.43;;;17.90;99.90;;;;;;5055427;28;20068;-61
2022/07/31 04:30:07;;;;;;;9.88;5.05;;;17.80;99.90;;;;;;5054918;28;20509;-61
2022/07/31 04:32:37;;;;;;;7.20;4.65;;;17.90;99.90;;;;;;5054051;28;20439;-61
2022/07/31 04:35:04;;;;;;;8.57;4.53;;;17.90;99.90;;;;;;5053754;28;20057;-60
2022/07/31 04:37:29;;;;;;;8.32;4.82;;;17.90;99.90;;;;;;5057749;28;20453;-61
2022/07/31 04:39:56;;;;;;;8.95;4.63;;;17.90;99.90;;;;;;5074796;28;20076;-61
2022/07/31 04:42:22;;;;;;;8.52;4.82;;;17.90;99.90;;;;;;5073761;28;20075;-60
2022/07/31 04:44:47;;;;;;;8.27;4.68;;;17.90;99.90;;;;;;5075007;28;20412;-61
2022/07/31 04:47:13;;;;;;;8.05;4.78;;;17.90;99.90;;;;;;5074797;28;20075;-60
2022/07/31 04:49:39;;;;;;;9.32;5.05;;;17.90;99.90;;;;;;5074670;28;20393;-61
2022/07/31 04:52:05;;;;;;;8.18;5.15;;;17.80;99.90;;;;;;5074604;28;20083;-60
2022/07/31 04:54:32;;;;;;;9.05;4.82;;;17.90;99.90;;;;;;5074693;28;20119;-61
2022/07/31 04:56:58;;;;;;;7.35;4.40;;;17.90;99.90;;;;;;5074687;28;20499;-61
2022/07/31 04:59:24;;;;;;;7.85;4.70;;;17.90;99.90;;;;;;5074628;28;20084;-61
2022/07/31 05:01:50;;;;;;;6.47;4.40;;;18.00;99.90;;;;;;5074536;28;20036;-61
2022/07/31 05:04:16;;;;;;;7.55;4.88;;;18.00;99.90;;;;;;5074388;28;20102;-61
2022/07/31 05:06:44;;;;;;;7.65;5.00;;;18.00;99.90;;;;;;5074356;28;20036;-61
2022/07/31 05:09:14;;;;;;;8.05;4.50;;;18.00;99.90;;;;;;5074142;28;20489;-60
2022/07/31 05:11:40;;;;;;;7.55;4.25;;;18.00;99.90;;;;;;5074319;28;20040;-61
2022/07/31 05:14:08;;;;;;;7.40;4.70;;;18.00;99.90;;;;;;5074374;28;20115;-61
2022/07/31 05:16:34;;;;;;;8.15;4.60;;;18.10;99.90;;;;;;5072825;28;20043;-61
2022/07/31 05:19:01;;;;;;;10.52;4.97;;;18.20;99.90;;;;;;5074130;28;20547;-61
2022/07/31 05:21:31;;;;;;;7.95;4.78;;;18.10;99.90;;;;;;5054724;28;20049;-61
2022/07/31 05:23:58;;;;;;;7.57;4.68;;;18.20;99.90;;;;;;5054050;28;20127;-60
2022/07/31 05:26:26;;;;;;;8.10;4.88;;;18.20;99.90;;;;;;5054017;28;20048;-61
2022/07/31 05:28:53;;;;;;;7.85;4.97;;;18.20;99.90;;;;;;5052857;28;20090;-61
2022/07/31 05:31:19;;;;;;;8.30;4.70;;;18.20;99.90;;;;;;5052779;28;20045;-61
2022/07/31 05:33:46;;;;;;;10.90;5.38;;;18.30;99.90;;;;;;5053742;28;20092;-61
2022/07/31 05:36:14;;;;;;;9.25;4.93;;;18.30;99.90;;;;;;5053848;28;20627;-61
2022/07/31 05:38:39;;;;;;;8.35;5.03;;;18.40;99.90;;;;;;5066185;28;20032;-61
2022/07/31 05:41:05;;;;;;;8.25;5.30;;;18.40;99.90;;;;;;5073679;28;20032;-60
2022/07/31 05:43:31;;;;;;;9.35;5.00;;;18.40;99.90;;;;;;5055787;28;20044;-60
2022/07/31 05:45:57;;;;;;;7.50;4.13;;;18.40;99.90;;;;;;5073690;28;20037;-61
2022/07/31 05:48:23;;;;;;;9.13;5.68;;;18.50;99.90;;;;;;5073576;28;20040;-61
2022/07/31 05:50:50;;;;;;;10.30;5.68;;;18.50;99.90;;;;;;5073707;28;20081;-60
2022/07/31 05:53:16;;;;;;;9.32;5.10;;;18.50;99.90;;;;;;5073586;28;20037;-61
2022/07/31 05:55:44;;;;;;;9.25;5.07;;;18.60;99.90;;;;;;5073487;28;20469;-61
2022/07/31 05:58:10;;;;;;;10.70;5.88;;;18.60;99.90;;;;;;5073538;28;20040;-61
2022/07/31 06:00:37;;;;;;;9.55;5.60;;;18.60;99.90;;;;;;5073348;28;20044;-61
2022/07/31 06:03:03;;;;;;;7.88;5.25;;;18.60;99.90;;;;;;5073233;28;20072;-61
2022/07/31 06:05:29;;;;;;;8.35;5.05;;;18.70;99.90;;;;;;5073458;28;20115;-61
2022/07/31 06:07:55;;;;;;;8.55;5.82;;;18.70;99.90;;;;;;5073452;28;20139;-61
2022/07/31 06:10:22;;;;;;;11.73;6.18;;;18.70;99.90;;;;;;5073304;28;20405;-61
2022/07/31 06:12:48;;;;;;;9.52;5.80;;;18.80;99.90;;;;;;5073133;28;20068;-61
2022/07/31 06:15:14;;;;;;;11.52;4.82;;;18.80;99.90;;;;;;5073048;28;20048;-61
2022/07/31 06:17:41;;;;;;;9.65;5.00;;;18.80;99.90;;;;;;5072980;28;20480;-61
2022/07/31 06:20:08;;;;;;;8.40;4.88;;;18.90;99.90;;;;;;5064918;28;20468;-61
2022/07/31 06:22:34;;;;;;;8.25;4.60;;;19.00;99.90;;;;;;5053029;28;20375;-62
2022/07/31 06:25:00;;;;;;;10.45;5.05;;;19.00;99.90;;;;;;5051674;28;20110;-60
2022/07/31 06:27:26;;;;;;;8.90;5.40;;;19.00;99.90;;;;;;5052328;28;20033;-61
2022/07/31 06:29:52;;;;;;;9.65;5.63;;;19.10;99.90;;;;;;5052914;28;20049;-60
2022/07/31 06:32:19;;;;;;;8.95;5.20;;;19.10;99.90;;;;;;5052745;28;20051;-61
2022/07/31 06:34:45;;;;;;;12.13;5.60;;;19.20;99.90;;;;;;5052607;28;20057;-61
2022/07/31 06:37:10;;;;;;;10.88;5.63;;;19.30;99.90;;;;;;5052333;28;20354;-61
2022/07/31 06:39:36;;;;;;;11.30;4.90;;;19.30;99.90;;;;;;5071871;28;20051;-61
2022/07/31 06:42:02;;;;;;;9.70;5.88;;;19.40;99.90;;;;;;5071802;28;20465;-61
2022/07/31 06:44:29;;;;;;;9.63;5.63;;;19.50;99.90;;;;;;5071907;28;20040;-60
2022/07/31 06:46:55;;;;;;;8.18;5.13;;;19.50;99.90;;;;;;5071907;28;20036;-61
2022/07/31 06:49:21;;;;;;;12.35;5.20;;;19.60;99.90;;;;;;5071644;28;20484;-60
2022/07/31 06:51:46;;;;;;;9.00;4.88;;;19.60;99.90;;;;;;5071174;28;20507;-61
2022/07/31 06:54:12;;;;;;;8.82;5.40;;;19.60;99.90;;;;;;5071078;28;20039;-61
2022/07/31 06:56:38;;;;;;;8.43;5.68;;;19.70;99.90;;;;;;5071478;28;20444;-61
2022/07/31 06:59:06;;;;;;;7.95;5.18;;;19.80;99.90;;;;;;5071449;28;20060;-60
2022/07/31 07:01:32;;;;;;;9.75;5.22;;;19.70;99.90;;;;;;5071612;28;20056;-61
2022/07/31 07:03:58;;;;;;;9.88;5.55;;;19.80;99.90;;;;;;5070505;28;20152;-61
2022/07/31 07:06:24;;;;;;;11.18;5.80;;;19.80;99.90;;;;;;5071645;28;20043;-61
2022/07/31 07:08:50;;;;;;;8.90;5.68;;;19.70;99.90;;;;;;5071349;28;20049;-61
2022/07/31 07:11:17;;;;;;;9.95;5.28;;;19.70;99.90;;;;;;5071362;28;20426;-61
2022/07/31 07:13:44;;;;;;;8.40;5.50;;;19.70;99.90;;;;;;5071329;28;20049;-61
2022/07/31 07:16:09;;;;;;;9.05;5.75;;;19.70;99.90;;;;;;5071424;28;20079;-61
2022/07/31 07:18:35;;;;;;;10.73;6.43;;;19.60;99.90;;;;;;5070964;28;20103;-61
2022/07/31 07:21:01;;;;;;;11.63;6.47;;;19.60;99.90;;;;;;5055111;28;20094;-61
2022/07/31 07:23:27;;;;;;;9.02;6.38;;;19.60;99.90;;;;;;5050941;28;20033;-61
2022/07/31 07:25:53;;;;;;;11.82;5.78;;;19.60;99.90;;;;;;5051138;28;20061;-61
2022/07/31 07:28:18;;;;;;;9.70;6.32;;;19.70;99.90;;;;;;5051177;28;20095;-61
2022/07/31 07:30:44;;;;;;;9.90;5.95;;;19.80;99.90;;;;;;5051476;28;20619;-61
2022/07/31 07:33:10;;;;;;;10.88;6.47;;;19.80;99.90;;;;;;5051302;28;20068;-60
2022/07/31 07:35:37;;;;;;;10.02;7.05;;;19.70;99.90;;;;;;5050854;28;20049;-61
2022/07/31 07:38:03;;;;;;;11.00;7.03;;;19.80;99.90;;;;;;5058614;28;20048;-61
2022/07/31 07:40:29;;;;;;;10.40;6.47;;;19.90;99.90;;;;;;5074985;28;20369;-60
2022/07/31 07:42:54;;;;;;;10.80;6.82;;;19.90;99.90;;;;;;5075202;28;20041;-60
2022/07/31 07:45:20;;;;;;;10.20;6.53;;;19.90;99.90;;;;;;5073593;28;20642;-61
2022/07/31 07:47:46;;;;;;;10.07;6.63;;;20.00;99.90;;;;;;5075360;28;20043;-60
2022/07/31 07:50:12;;;;;;;11.10;6.38;;;20.10;99.90;;;;;;5074774;28;20047;-60
2022/07/31 07:52:38;;;;;;;8.85;5.90;;;20.20;99.90;;;;;;5074819;28;20040;-60
2022/07/31 07:55:05;;;;;;;10.80;7.15;;;20.20;99.90;;;;;;5073175;28;20044;-61
2022/07/31 07:57:31;;;;;;;10.43;7.15;;;20.30;99.90;;;;;;5074915;28;20048;-61
2022/07/31 08:00:05;;;;;;;10.48;7.30;;;20.30;99.90;;;;;;5074811;28;20049;-60
2022/07/31 08:02:31;;;;;;;10.20;7.50;;;20.40;99.90;;;;;;5074961;28;20120;-60
2022/07/31 08:04:56;;;;;;;11.20;7.30;;;20.50;99.90;;;;;;5074843;28;20124;-61
2022/07/31 08:07:29;;;;;;;8.80;7.03;;;20.40;99.90;;;;;;5074637;28;20072;-60
2022/07/31 08:09:56;;;;;;;10.65;7.72;;;20.40;99.90;;;;;;5074230;28;20036;-61
2022/07/31 08:12:22;;;;;;;12.57;7.47;;;20.40;99.90;;;;;;5074189;28;20048;-61
2022/07/31 08:14:48;;;;;;;11.82;7.63;;;20.40;99.90;;;;;;5074547;28;20392;-60
2022/07/31 08:17:14;;;;;;;12.02;8.38;;;20.40;99.90;;;;;;5059137;28;20115;-62
2022/07/31 08:19:40;;;;;;;10.80;7.72;;;20.30;99.90;;;;;;5049960;28;20080;-61
2022/07/31 08:22:07;;;;;;;14.13;7.78;;;20.40;99.90;;;;;;5034153;28;20612;-60
2022/07/31 08:24:33;;;;;;;12.00;8.32;;;20.40;99.90;;;;;;5034458;28;20057;-61
2022/07/31 08:29:44;;;;;;;13.95;7.85;;;20.50;99.90;;;;;;5034438;28;20390;-61
2022/07/31 08:32:10;;;;;;;10.50;7.72;;;20.50;99.90;;;;;;5034332;28;20129;-60
2022/07/31 08:34:37;;;;;;;14.40;8.52;;;20.40;99.90;;;;;;5034072;28;20494;-61
2022/07/31 08:37:05;;;;;;;14.05;8.38;;;20.40;99.90;;;;;;5034122;28;20041;-61
2022/07/31 08:39:34;;;;;;;13.38;9.93;;;20.40;99.90;;;;;;5073252;28;20485;-61
2022/07/31 08:42:07;;;;;;;13.63;8.93;;;20.40;99.90;;;;;;5074256;28;20052;-60
2022/07/31 08:44:36;;;;;;;16.55;9.63;;;20.40;99.90;;;;;;5074317;28;20502;-61
2022/07/31 08:47:05;;;;;;;13.55;9.65;;;20.40;99.90;;;;;;5042198;28;20040;-60
2022/07/31 08:49:36;;;;;;;13.25;9.77;;;20.30;99.90;;;;;;5053896;28;20041;-61
2022/07/31 08:52:02;;;;;;;15.95;10.40;;;20.30;99.90;;;;;;5053461;28;20033;-60
2022/07/31 08:54:31;;;;;;;14.23;10.38;;;20.20;99.90;;;;;;5053988;28;20041;-61
2022/07/31 08:56:57;;;;;;;15.65;11.25;;;20.20;99.90;;;;;;5053888;28;20374;-61
2022/07/31 08:59:23;;;;;;;17.30;11.02;;;20.20;99.90;;;;;;5053739;28;20049;-61
2022/07/31 09:01:49;;;;;;;17.60;11.65;;;20.20;99.90;;;;;;5053514;28;20040;-61
2022/07/31 09:04:14;;;;;;;16.25;12.25;;;20.20;99.90;;;;;;5053439;28;20041;-61
2022/07/31 09:06:40;;;;;;;16.42;12.43;;;20.00;99.90;;;;;;5053529;28;20063;-62
2022/07/31 09:09:06;;;;;;;18.48;13.07;;;19.80;99.90;;;;;;5053385;28;20130;-61
2022/07/31 09:11:32;;;;;;;19.90;13.82;;;19.90;99.90;;;;;;5053564;28;20041;-61
2022/07/31 09:14:01;;;;;;;23.63;15.10;;;19.90;99.90;;;;;;5053773;28;20052;-61
2022/07/31 09:16:28;;;;;;;22.10;16.30;;;19.80;99.90;;;;;;5053477;28;20040;-61
2022/07/31 09:19:01;;;;;;;20.30;16.48;;;19.80;99.90;;;;;;5053412;28;20124;-61
2022/07/31 09:21:38;;;;;;;22.17;15.68;;;19.70;99.90;;;;;;5034234;28;20085;-61
2022/07/31 09:24:04;;;;;;;20.95;16.13;;;19.70;99.90;;;;;;5059137;28;20037;-60
2022/07/31 09:26:34;;;;;;;23.60;16.75;;;19.70;99.90;;;;;;5053343;28;20045;-61
2022/07/31 09:29:00;;;;;;;22.13;16.90;;;19.70;99.90;;;;;;5052832;28;20040;-61
2022/07/31 09:31:33;;;;;;;22.63;17.17;;;19.70;99.90;;;;;;5052813;28;20047;-60
2022/07/31 09:33:59;;;;;;;22.15;17.20;;;19.70;99.90;;;;;;5053276;28;20080;-60
2022/07/31 09:36:25;;;;;;;23.88;17.90;;;19.90;99.90;;;;;;5053966;28;20423;-61
2022/07/31 09:38:51;;;;;;;24.92;16.80;;;19.80;99.90;;;;;;5066942;28;20079;-61
2022/07/31 09:41:19;;;;;;;25.95;18.08;;;19.80;99.90;;;;;;5053863;28;20073;-59
2022/07/31 09:43:56;;;;;;;24.83;17.95;;;19.80;99.90;;;;;;5032471;28;20371;-60
2022/07/31 09:46:21;;;;;;;23.90;17.67;;;19.80;99.90;;;;;;5033218;28;20497;-61
2022/07/31 09:48:52;;;;;;;24.85;17.60;;;19.80;99.90;;;;;;5033016;28;20064;-60
2022/07/31 09:51:17;;;;;;;25.77;19.15;;;19.60;99.90;;;;;;5032907;28;20044;-61
2022/07/31 09:53:44;;;;;;;22.63;17.40;;;19.40;99.90;;;;;;5032700;28;20485;-60
2022/07/31 09:56:14;;;;;;;28.80;19.42;;;19.50;99.90;;;;;;5032724;28;20046;-61
2022/07/31 09:58:41;;;;;;;23.25;17.75;;;19.50;99.90;;;;;;5032870;28;20055;-60
2022/07/31 10:01:11;;;;;;;23.33;19.00;;;19.50;99.90;;;;;;5032446;28;20041;-60
2022/07/31 10:03:39;;;;;;;24.02;18.73;;;19.50;99.90;;;;;;5031974;28;20409;-60
2022/07/31 10:06:07;;;;;;;23.55;18.25;;;19.50;99.90;;;;;;5032382;28;20069;-60
2022/07/31 10:08:35;;;;;;;28.73;21.70;;;19.60;99.90;;;;;;5032898;28;20033;-61
2022/07/31 10:11:05;;;;;;;25.77;18.30;;;19.50;99.90;;;;;;5032451;28;20436;-60
2022/07/31 10:13:37;;;;;;;27.90;19.88;;;19.60;99.90;;;;;;5033243;28;20501;-60
2022/07/31 10:16:04;;;;;;;;;;;19.70;99.90;;;;;;5033621;28;20046;-61
2022/07/31 10:18:33;;;;;;;31.10;22.63;;;19.70;99.90;;;;;;5033295;28;19921;-60
2022/07/31 10:21:03;;;;;;;27.58;19.90;;;19.70;99.90;;;;;;5048261;28;20063;-61
2022/07/31 10:23:32;;;;;;;23.45;19.65;;;19.60;99.90;;;;;;5052860;28;20040;-61
2022/07/31 10:25:59;;;;;;;31.70;22.38;;;19.50;99.90;;;;;;5053006;28;20041;-60
2022/07/31 10:28:27;;;;;;;30.05;23.35;;;19.50;99.90;;;;;;5053010;28;20436;-61
2022/07/31 10:30:53;;;;;;;26.67;20.92;;;19.50;99.90;;;;;;5085339;28;20120;-61
2022/07/31 10:33:20;;;;;;;30.27;22.40;;;19.50;99.90;;;;;;5052785;28;20120;-61
2022/07/31 10:36:19;;;;;;;31.42;23.15;;;19.50;99.90;;;;;;5052602;28;20060;-61
2022/07/31 10:39:02;;;;;;;27.30;21.00;;;19.60;99.90;;;;;;5064573;28;20114;-61
2022/07/31 10:41:45;;;;;;;30.73;21.52;;;19.50;99.90;;;;;;5072667;28;20037;-60
2022/07/31 10:44:34;;;;;;;29.95;22.40;;;19.40;99.90;;;;;;5072604;28;20044;-61
2022/07/31 10:47:11;;;;;;;28.95;22.52;;;19.30;99.90;;;;;;5072375;28;20059;-61
2022/07/31 10:49:39;;;;;;;31.42;23.98;;;19.20;99.90;;;;;;5072696;28;20129;-61
2022/07/31 10:52:05;;;;;;;31.05;23.15;;;19.30;99.90;;;;;;5072324;28;20076;-60
2022/07/31 10:54:42;;;;;;;30.52;22.65;;;19.20;99.90;;;;;;5072678;28;20059;-61
2022/07/31 10:57:08;;;;;;;31.15;23.48;;;19.30;99.90;;;;;;5072419;28;20144;-60
2022/07/31 10:59:33;;;;;;;29.50;23.65;;;19.30;99.90;;;;;;5072449;28;20119;-60
2022/07/31 11:01:59;;;;;;;28.88;23.17;;;19.00;99.90;;;;;;5053396;28;20119;-60
2022/07/31 11:04:31;;;;;;;26.48;21.40;;;19.00;99.90;;;;;;5032360;28;20099;-60
2022/07/31 11:06:58;;;;;;;19.85;15.73;;;19.20;99.90;;;;;;5032339;28;20037;-60
2022/07/31 11:09:26;;;;;;;23.65;19.33;;;19.20;99.90;;;;;;5032332;28;20513;-60
2022/07/31 11:11:52;;;;;;;20.58;17.17;;;19.10;99.90;;;;;;5032579;28;20052;-61
2022/07/31 11:14:17;;;;;;;23.52;19.95;;;19.00;99.90;;;;;;5032218;28;20045;-60
2022/07/31 11:16:54;;;;;;;27.05;20.83;;;19.20;99.90;;;;;;5032282;28;20077;-60
2022/07/31 11:19:20;;;;;;;28.70;22.50;;;19.10;99.90;;;;;;5033752;28;20041;-60
2022/07/31 11:21:46;;;;;;;31.95;23.38;;;19.20;99.90;;;;;;5050690;28;20045;-61
2022/07/31 11:24:22;;;;;;;26.38;21.08;;;19.10;99.90;;;;;;5052031;28;20047;-61
2022/07/31 11:26:57;;;;;;;26.63;19.92;;;19.10;99.90;;;;;;5052104;28;20099;-60
2022/07/31 11:29:31;;;;;;;31.25;24.05;;;19.20;99.90;;;;;;5052144;28;20040;-61
2022/07/31 11:32:16;;;;;;;27.08;22.45;;;19.10;99.90;;;;;;5067495;28;20047;-61
2022/07/31 11:34:52;;;;;;;27.35;21.65;;;19.00;99.90;;;;;;5052029;28;20061;-60
2022/07/31 11:37:22;;;;;;;32.42;24.20;;;19.10;99.90;;;;;;5053024;28;20497;-61
2022/07/31 11:39:52;;;;;;;27.98;21.63;;;19.00;99.90;;;;;;5072066;28;20195;-62
2022/07/31 11:42:20;;;;;;;25.60;20.25;;;19.20;99.90;;;;;;5051247;28;20455;-62
2022/07/31 11:44:45;;;;;;;23.05;19.35;;;19.10;99.90;;;;;;5051999;28;20040;-61
2022/07/31 11:47:12;;;;;;;26.00;20.40;;;19.30;99.90;;;;;;5051960;28;20041;-64
2022/07/31 11:49:37;;;;;;;26.83;21.10;;;19.10;99.90;;;;;;5051430;28;20509;-63
2022/07/31 11:52:10;;;;;;;31.30;21.55;;;19.30;99.90;;;;;;5051424;28;20087;-65
2022/07/31 11:54:37;;;;;;;25.17;19.98;;;19.20;99.90;;;;;;5048741;28;20049;-62
2022/07/31 11:57:04;;;;;;;25.02;19.77;;;19.00;99.90;;;;;;5034797;28;20524;-63
2022/07/31 11:59:35;;;;;;;32.97;24.02;;;19.10;99.90;;;;;;5031859;28;20468;-64
2022/07/31 12:02:05;;;;;;;31.52;23.65;;;19.00;99.90;;;;;;5031902;28;20098;-64
2022/07/31 12:04:32;;;;;;;30.67;22.48;;;18.80;99.90;;;;;;5031902;28;20056;-61
2022/07/31 12:06:58;;;;;;;22.75;18.17;;;19.00;99.90;;;;;;5031667;28;20049;-61
2022/07/31 12:09:25;;;;;;;29.15;23.08;;;18.80;99.90;;;;;;5031709;28;20090;-61
2022/07/31 12:11:50;;;;;;;32.25;22.90;;;18.80;99.90;;;;;;5031683;28;20132;-61
2022/07/31 12:14:34;;;;;;;32.17;22.83;;;18.70;99.90;;;;;;5031239;28;20121;-61
2022/07/31 12:17:04;;;;;;;38.92;26.63;;;18.90;99.90;;;;;;5031011;28;20037;-61
2022/07/31 12:19:32;;;;;;;35.63;26.98;;;18.80;99.90;;;;;;5033885;28;20323;-61
2022/07/31 12:21:58;;;;;;;35.15;24.55;;;18.60;99.90;;;;;;5049383;28;20045;-61
2022/07/31 12:24:24;;;;;;;30.15;22.95;;;18.60;99.90;;;;;;5050864;28;20106;-60
2022/07/31 12:26:58;;;;;;;36.85;26.55;;;18.80;99.90;;;;;;5053360;28;20116;-61
2022/07/31 12:29:35;;;;;;;27.08;22.20;;;18.70;99.90;;;;;;5048171;28;20117;-60
2022/07/31 12:32:01;;;;;;;30.13;22.30;;;18.80;99.90;;;;;;5044387;28;20076;-60
2022/07/31 12:34:28;;;;;;;28.42;21.05;;;18.90;99.90;;;;;;5043427;28;20061;-60
2022/07/31 12:37:13;;;;;;;27.02;21.45;;;18.90;99.90;;;;;;5052907;28;20044;-61
2022/07/31 12:39:51;;;;;;;28.25;19.88;;;19.00;99.90;;;;;;5034251;28;20120;-60
2022/07/31 12:42:24;;;;;;;22.08;18.38;;;18.80;99.90;;;;;;5032725;28;20076;-60
2022/07/31 12:44:51;;;;;;;20.40;16.88;;;18.70;99.90;;;;;;5034124;28;20051;-61
2022/07/31 12:47:47;;;;;;;21.05;15.88;;;18.80;99.90;;;;;;5034187;28;20091;-60